Okara, Pakistan
Current Conditions -  °F | °C
As of 11:25 AM on Friday 31 Oct 2014 (Local Time) from OPLA Reporting Station
Haze Haze  
Wind Chill: 79°   Ceiling: Unl
Heat Index: 79°   Visibility: 2.5mi
Dew Point: 55°   Wind: 7mph
Humidity: 44%   Direction: 360°N
Pressure: 30.03"   Gusts: NA
Location:  30.81°N, 73.45°E
Report Text: OPLA 310625Z 36006KT 4000 HZ NSC 26/13 Q1017
Loading
Personal Weather Stations






























Interactive Weather Map
Tropical Storm Tracking
New forecast layout! Learn more

10-Day Weather Forecast

Advertisements
Track Severe Weather on mobile